Norient Star — 9HRV9 — position and weather

sailwx.info

Track history (hours):
 
Tides and Currents Weather Stations Pressure Air Temp Water Temp Dewpoint Dewpoint Depression Visibility Wind Speed Wind Dir Waves Ship Positions

Norient Star

Last reported at 2017-Feb-17 09:06 UTC. Time now 2017-Feb-20 15:29 UTC.
Position N 51°23' W 005°20'.

Length 180 m; draft 9 m.

Type: Ship. MMSI: 249434000.

Date/timePositionNaut miles runAvg speedWind from/ knotsBaromVisibWave heightAir tempDewpointWater temp
2017-Feb-17 09:06N 51°23' W 005°20'713.5
2017-Feb-17 08:33N 51°16' W 005°24'1313.5
2017-Feb-17 07:33N 51°03' W 005°31'1313.5
2017-Feb-17 06:33N 50°51' W 005°37'1313.5
2017-Feb-17 05:33N 50°38' W 005°44'1313.4
2017-Feb-17 04:33N 50°25' W 005°50'1313.2
2017-Feb-17 03:33N 50°12' W 005°52'1413.2
2017-Feb-17 02:31N 49°58' W 005°52'1111.6
2017-Feb-17 01:33N 49°53' W 005°37'2410.6
2017-Feb-16 23:19N 49°48' W 005°01'810.9
2017-Feb-16 22:33N 49°49' W 004°48'1211.9
2017-Feb-16 21:32N 49°51' W 004°30'1111.6
2017-Feb-16 20:33N 49°53' W 004°12'1211.8
2017-Feb-16 19:33N 49°54' W 003°54'1312.5
2017-Feb-16 18:33N 49°56' W 003°35'1413.5
2017-Feb-16 17:34N 49°58' W 003°14'1414.1
2017-Feb-16 16:34N 50°01' W 002°52'5012.4
2017-Feb-16 12:33N 50°14' W 001°37'10 9.7
2017-Feb-16 11:33N 50°17' W 001°23'4711.5
2017-Feb-16 07:29N 50°29' W 000°12'1314.0
2017-Feb-16 06:33N 50°32' E 000°08'4912.2
2017-Feb-16 02:32N 50°58' E 001°15'1110.9
2017-Feb-16 01:34N 51°05' E 001°28'1312.8
2017-Feb-16 00:33N 51°13' E 001°44'1414.4
2017-Feb-15 23:33N 51°25' E 001°55'1814.5
2017-Feb-15 22:19N 51°39' E 002°14'8811.2
2017-Feb-15 14:27N 52°31' E 004°09'1112.1
2017-Feb-15 13:33N 52°29' E 004°26'6 6.4
2017-Feb-15 12:33N 52°28' E 004°37'5 5.0
2017-Feb-15 11:33N 52°26' E 004°44'2 1.9
2017-Feb-15 10:21N 52°24' E 004°46'0 0.0
2017-Feb-15 09:33N 52°24' E 004°46'0 0.0
2017-Feb-15 08:33N 52°24' E 004°46'0 0.0
2017-Feb-15 07:33N 52°24' E 004°46'0 0.0
2017-Feb-15 06:33N 52°24' E 004°46'0 0.0
2017-Feb-15 05:29N 52°24' E 004°46'0 0.0
2017-Feb-15 04:17N 52°24' E 004°46'0 0.0
2017-Feb-15 03:29N 52°24' E 004°46'0 0.0
2017-Feb-15 02:29N 52°24' E 004°46'0 0.0
2017-Feb-15 01:29N 52°24' E 004°46'0 0.0
2017-Feb-15 00:33N 52°24' E 004°46'0 0.0
2017-Feb-14 23:09N 52°24' E 004°46'0 0.0
2017-Feb-14 22:27N 52°24' E 004°46'0 0.0
2017-Feb-14 21:29N 52°24' E 004°46'0 0.0
2017-Feb-14 20:15N 52°24' E 004°46'0 0.0
2017-Feb-14 19:29N 52°24' E 004°46'0 0.0
2017-Feb-14 17:29N 52°24' E 004°46'0 0.0
2017-Feb-14 16:21N 52°24' E 004°46'0 0.0
2017-Feb-14 15:17N 52°24' E 004°46'0 0.0
2017-Feb-14 14:11N 52°24' E 004°46'0 0.0
2017-Feb-14 13:29N 52°24' E 004°46'0 0.0
2017-Feb-14 12:33N 52°24' E 004°46'0 0.0
2017-Feb-14 11:33N 52°24' E 004°46'0 0.0
2017-Feb-14 10:27N 52°24' E 004°46'0 0.0
2017-Feb-14 09:33N 52°24' E 004°46'0 0.0
2017-Feb-14 08:27N 52°24' E 004°46'0 0.0
2017-Feb-14 07:27N 52°24' E 004°46'0 0.0
2017-Feb-14 06:33N 52°24' E 004°46'0 0.0
2017-Feb-14 05:27N 52°24' E 004°46'0 0.0
2017-Feb-14 04:33N 52°24' E 004°46'0 0.0
2017-Feb-14 03:27N 52°24' E 004°46'0 0.0
2017-Feb-14 02:27N 52°24' E 004°46'0 0.0
2017-Feb-14 01:27N 52°24' E 004°46'0 0.0
2017-Feb-14 00:29N 52°24' E 004°46'0 0.0
2017-Feb-13 23:29N 52°24' E 004°46'0 0.0
2017-Feb-13 22:33N 52°24' E 004°46'0 0.0
2017-Feb-13 21:33N 52°24' E 004°46'0 0.0
2017-Feb-13 20:17N 52°24' E 004°46'0 0.0
2017-Feb-13 19:33N 52°24' E 004°46'0 0.0
2017-Feb-13 18:33N 52°24' E 004°46'0 0.0
2017-Feb-13 17:33N 52°24' E 004°46'0 0.0
2017-Feb-13 16:27N 52°24' E 004°46'0 0.0
2017-Feb-13 15:17N 52°24' E 004°46'0 0.0
2017-Feb-13 14:33N 52°24' E 004°46'0 0.0
2017-Feb-13 13:33N 52°24' E 004°46'2 1.9
2017-Feb-13 12:33N 52°26' E 004°45'6 5.7
2017-Feb-13 11:33N 52°28' E 004°36'3 3.5
2017-Feb-13 10:34N 52°28' E 004°31'8 7.9
2017-Feb-13 09:33N 52°28' E 004°18'2410.1
2017-Feb-13 07:11N 52°24' E 003°39'9 9.0
2017-Feb-13 06:09N 52°20' E 003°25'810.1
2017-Feb-13 05:24N 52°15' E 003°17'910.5
2017-Feb-13 04:33N 52°09' E 003°06'1313.4
2017-Feb-13 03:33N 51°60' E 002°50'1311.9
2017-Feb-13 02:26N 51°57' E 002°29'1313.3
2017-Feb-13 01:27N 51°47' E 002°15'1112.2
2017-Feb-13 00:33N 51°39' E 002°03'1111.0
2017-Feb-12 23:33N 51°32' E 001°49'1010.5
2017-Feb-12 22:33N 51°28' E 001°34'9 7.3
2017-Feb-12 21:19N 51°29' E 001°19'7 9.1
2017-Feb-12 20:33N 51°29' E 001°08'1410.6
2017-Feb-12 19:15N 51°29' E 000°46'1013.8
2017-Feb-12 18:33N 51°30' E 000°31'9 9.3
2017-Feb-12 17:33N 51°28' E 000°16'0 0.1
2017-Feb-12 16:34N 51°28' E 000°16'0 0.0
2017-Feb-12 15:34N 51°28' E 000°16'0 0.0
2017-Feb-12 14:34N 51°28' E 000°16'0 0.0
2017-Feb-12 13:33N 51°28' E 000°16'0 0.0
2017-Feb-12 12:34N 51°28' E 000°16'0 0.0
2017-Feb-12 11:34N 51°28' E 000°16'0 0.0
2017-Feb-12 10:34N 51°28' E 000°16'0 0.0
2017-Feb-12 09:34N 51°28' E 000°16'0 0.0
2017-Feb-12 08:34N 51°28' E 000°16'0 0.0
2017-Feb-12 07:33N 51°28' E 000°16'0 0.0
2017-Feb-12 06:34N 51°28' E 000°16'0 0.0
2017-Feb-12 05:34N 51°28' E 000°16'0 0.0
2017-Feb-12 04:34N 51°28' E 000°16'0 0.0
2017-Feb-12 03:34N 51°28' E 000°16'0 0.0
2017-Feb-12 02:34N 51°28' E 000°16'0 0.0
2017-Feb-12 01:34N 51°28' E 000°16'0 0.0
2017-Feb-12 00:34N 51°28' E 000°16'0 0.0
2017-Feb-11 23:34N 51°28' E 000°16'0 0.0
2017-Feb-11 22:34N 51°28' E 000°16'0 0.0
2017-Feb-11 21:34N 51°28' E 000°16'0 0.0
2017-Feb-11 20:34N 51°28' E 000°16'0 0.0
2017-Feb-11 19:34N 51°28' E 000°16'0 0.0
2017-Feb-11 18:34N 51°28' E 000°16'0 0.0
2017-Feb-11 17:34N 51°28' E 000°16'0 0.0
2017-Feb-11 16:34N 51°28' E 000°16'0 0.0
2017-Feb-11 15:34N 51°28' E 000°16'0 0.0
2017-Feb-11 14:34N 51°28' E 000°16'0 0.0
2017-Feb-11 13:34N 51°28' E 000°16'0 0.0
2017-Feb-11 12:34N 51°28' E 000°16'0 0.0
2017-Feb-11 11:34N 51°28' E 000°16'0 0.0
2017-Feb-11 10:34N 51°28' E 000°16'0 0.0
2017-Feb-11 09:34N 51°28' E 000°16'0 0.0
2017-Feb-11 08:34N 51°28' E 000°16'0 0.0
2017-Feb-11 07:34N 51°28' E 000°16'0 0.0
2017-Feb-11 06:34N 51°28' E 000°16'0 0.0
2017-Feb-11 05:34N 51°28' E 000°16'0 0.0
2017-Feb-11 04:34N 51°28' E 000°16'0 0.0
2017-Feb-11 03:34N 51°28' E 000°16'0 0.0
2017-Feb-11 02:33N 51°28' E 000°16'0 0.0
2017-Feb-11 01:34N 51°28' E 000°16'0 0.0
2017-Feb-11 00:34N 51°28' E 000°16'0 0.0
2017-Feb-10 23:34N 51°28' E 000°16'0 0.0
2017-Feb-10 22:34N 51°28' E 000°16'0 0.0
2017-Feb-10 21:34N 51°28' E 000°16'0 0.0
2017-Feb-10 20:34N 51°28' E 000°16'0 0.0
2017-Feb-10 19:34N 51°28' E 000°16'0 0.0
2017-Feb-10 18:34N 51°28' E 000°16'0 0.0
2017-Feb-10 17:34N 51°28' E 000°16'0 0.0
2017-Feb-10 16:34N 51°28' E 000°16'0 0.0
2017-Feb-10 15:34N 51°28' E 000°16'0 0.0
2017-Feb-10 14:34N 51°28' E 000°16'0 0.0
2017-Feb-10 13:34N 51°28' E 000°16'0 0.0
2017-Feb-10 12:34N 51°28' E 000°16'0 0.0
2017-Feb-10 11:34N 51°28' E 000°16'0 0.0
2017-Feb-10 10:33N 51°28' E 000°16'0 0.0
2017-Feb-10 09:34N 51°28' E 000°16'0 0.0
2017-Feb-10 08:34N 51°28' E 000°16'0 0.0
2017-Feb-10 07:34N 51°28' E 000°16'0 0.0
2017-Feb-10 06:34N 51°28' E 000°16'0 0.0
2017-Feb-10 05:32N 51°28' E 000°16'0 0.0
2017-Feb-10 04:33N 51°28' E 000°16'0 0.0
2017-Feb-10 03:34N 51°28' E 000°16'0 0.0
2017-Feb-10 02:34N 51°28' E 000°16'0 0.0
2017-Feb-10 01:34N 51°28' E 000°16'0 0.0
2017-Feb-10 00:34N 51°28' E 000°16'0 0.0
2017-Feb-09 23:34N 51°28' E 000°16'0 0.0
2017-Feb-09 22:33N 51°28' E 000°16'0 0.0
2017-Feb-09 21:34N 51°28' E 000°16'0 0.0
2017-Feb-09 20:34N 51°28' E 000°16'0 0.0
2017-Feb-09 19:34N 51°28' E 000°16'0 0.0
2017-Feb-09 18:34N 51°28' E 000°16'0 0.0
2017-Feb-09 17:34N 51°28' E 000°16'0 0.0
2017-Feb-09 16:34N 51°28' E 000°16'0 0.0
2017-Feb-09 15:34N 51°28' E 000°16'0 0.0
2017-Feb-09 14:33N 51°28' E 000°16'0 0.0
2017-Feb-09 13:34N 51°28' E 000°16'0 0.0
2017-Feb-09 12:34N 51°28' E 000°16'0 0.0
2017-Feb-09 11:33N 51°28' E 000°16'0 0.0
2017-Feb-09 10:31N 51°28' E 000°16'0 0.0
2017-Feb-09 09:34N 51°28' E 000°16'0 0.0
2017-Feb-09 08:34N 51°28' E 000°16'0 0.0
2017-Feb-09 07:34N 51°28' E 000°16'0 0.0
2017-Feb-09 06:34N 51°28' E 000°16'0 0.0
2017-Feb-09 05:34N 51°28' E 000°16'0 0.0
2017-Feb-09 04:34N 51°28' E 000°16'0 0.0
2017-Feb-09 03:34N 51°28' E 000°16'0 0.0
2017-Feb-09 02:34N 51°28' E 000°16'0 0.0
2017-Feb-09 01:34N 51°28' E 000°16'0 0.0
2017-Feb-09 00:34N 51°28' E 000°16'0 0.0
2017-Feb-08 23:34N 51°28' E 000°16'0 0.0
2017-Feb-08 22:34N 51°28' E 000°16'0 0.0
2017-Feb-08 21:34N 51°28' E 000°16'0 0.0
2017-Feb-08 20:34N 51°28' E 000°16'0 0.0
2017-Feb-08 19:34N 51°28' E 000°16'0 0.0
2017-Feb-08 18:34N 51°28' E 000°16'0 0.0
2017-Feb-08 17:34N 51°28' E 000°16'0 0.0
2017-Feb-08 16:34N 51°28' E 000°16'0 0.0
2017-Feb-08 15:34N 51°28' E 000°16'0 0.0
2017-Feb-08 14:34N 51°28' E 000°16'0 0.0
2017-Feb-08 13:33N 51°28' E 000°16'0 0.0
2017-Feb-08 12:33N 51°28' E 000°16'0 0.0
2017-Feb-08 11:30N 51°28' E 000°16'0 0.0
2017-Feb-08 10:33N 51°28' E 000°16'2 2.1
2017-Feb-08 09:33N 51°28' E 000°20'7 6.7
2017-Feb-08 08:34N 51°30' E 000°30'9 8.7
2017-Feb-08 07:34N 51°30' E 000°44'9 9.5
2017-Feb-08 06:34N 51°29' E 000°59'9 9.3
2017-Feb-08 05:34N 51°34' E 001°12'9 9.3
2017-Feb-08 04:34N 51°39' E 001°24'7 6.5
2017-Feb-08 03:33N 51°45' E 001°30'5 5.0
2017-Feb-08 02:34N 51°49' E 001°30'0 0.0
2017-Feb-08 01:33N 51°49' E 001°30'0 0.1
2017-Feb-08 00:33N 51°50' E 001°30'0 0.0
2017-Feb-07 23:33N 51°50' E 001°30'0 0.1
2017-Feb-07 22:33N 51°49' E 001°30'0 0.1
2017-Feb-07 21:33N 51°49' E 001°30'0 0.2
2017-Feb-07 20:33N 51°49' E 001°30'0 0.0
2017-Feb-07 19:33N 51°49' E 001°30'0 0.0
2017-Feb-07 18:33N 51°49' E 001°30'0 0.0
2017-Feb-07 17:33N 51°49' E 001°30'0 0.0
2017-Feb-07 16:33N 51°49' E 001°30'0 0.1
2017-Feb-07 15:33N 51°49' E 001°30'0 0.2
2017-Feb-07 14:33N 51°49' E 001°30'0 0.0
2017-Feb-07 13:33N 51°49' E 001°30'0 0.0
2017-Feb-07 12:33N 51°49' E 001°30'0 0.0
2017-Feb-07 11:33N 51°49' E 001°30'0 0.0
2017-Feb-07 10:33N 51°50' E 001°30'0 0.0
2017-Feb-07 09:33N 51°50' E 001°30'  
Track history (hours):
 
Tides and Currents Weather Stations Pressure Air Temp Water Temp Dewpoint Dewpoint Depression Visibility Wind Speed Wind Dir Waves Ship Positions

Norient Star

Last reported at 2017-Feb-17 09:06 UTC. Time now 2017-Feb-20 15:29 UTC.
Position N 51°23' W 005°20'.

Length 180 m; draft 9 m.

Type: Ship. MMSI: 249434000.

Date/timePositionNaut miles runAvg speedWind from/ knotsBaromVisibWave heightAir tempDewpointWater temp
2017-Feb-17 09:06N 51°23' W 005°20'713.5
2017-Feb-17 08:33N 51°16' W 005°24'1313.5
2017-Feb-17 07:33N 51°03' W 005°31'1313.5
2017-Feb-17 06:33N 50°51' W 005°37'1313.5
2017-Feb-17 05:33N 50°38' W 005°44'1313.4
2017-Feb-17 04:33N 50°25' W 005°50'1313.2
2017-Feb-17 03:33N 50°12' W 005°52'1413.2
2017-Feb-17 02:31N 49°58' W 005°52'1111.6
2017-Feb-17 01:33N 49°53' W 005°37'2410.6
2017-Feb-16 23:19N 49°48' W 005°01'810.9
2017-Feb-16 22:33N 49°49' W 004°48'1211.9
2017-Feb-16 21:32N 49°51' W 004°30'1111.6
2017-Feb-16 20:33N 49°53' W 004°12'1211.8
2017-Feb-16 19:33N 49°54' W 003°54'1312.5
2017-Feb-16 18:33N 49°56' W 003°35'1413.5
2017-Feb-16 17:34N 49°58' W 003°14'1414.1
2017-Feb-16 16:34N 50°01' W 002°52'5012.4
2017-Feb-16 12:33N 50°14' W 001°37'10 9.7
2017-Feb-16 11:33N 50°17' W 001°23'4711.5
2017-Feb-16 07:29N 50°29' W 000°12'1314.0
2017-Feb-16 06:33N 50°32' E 000°08'4912.2
2017-Feb-16 02:32N 50°58' E 001°15'1110.9
2017-Feb-16 01:34N 51°05' E 001°28'1312.8
2017-Feb-16 00:33N 51°13' E 001°44'1414.4
2017-Feb-15 23:33N 51°25' E 001°55'1814.5
2017-Feb-15 22:19N 51°39' E 002°14'8811.2
2017-Feb-15 14:27N 52°31' E 004°09'1112.1
2017-Feb-15 13:33N 52°29' E 004°26'6 6.4
2017-Feb-15 12:33N 52°28' E 004°37'5 5.0
2017-Feb-15 11:33N 52°26' E 004°44'2 1.9
2017-Feb-15 10:21N 52°24' E 004°46'0 0.0
2017-Feb-15 09:33N 52°24' E 004°46'0 0.0
2017-Feb-15 08:33N 52°24' E 004°46'0 0.0
2017-Feb-15 07:33N 52°24' E 004°46'0 0.0
2017-Feb-15 06:33N 52°24' E 004°46'0 0.0
2017-Feb-15 05:29N 52°24' E 004°46'0 0.0
2017-Feb-15 04:17N 52°24' E 004°46'0 0.0
2017-Feb-15 03:29N 52°24' E 004°46'0 0.0
2017-Feb-15 02:29N 52°24' E 004°46'0 0.0
2017-Feb-15 01:29N 52°24' E 004°46'0 0.0
2017-Feb-15 00:33N 52°24' E 004°46'0 0.0
2017-Feb-14 23:09N 52°24' E 004°46'0 0.0
2017-Feb-14 22:27N 52°24' E 004°46'0 0.0
2017-Feb-14 21:29N 52°24' E 004°46'0 0.0
2017-Feb-14 20:15N 52°24' E 004°46'0 0.0
2017-Feb-14 19:29N 52°24' E 004°46'0 0.0
2017-Feb-14 17:29N 52°24' E 004°46'0 0.0
2017-Feb-14 16:21N 52°24' E 004°46'0 0.0
2017-Feb-14 15:17N 52°24' E 004°46'0 0.0
2017-Feb-14 14:11N 52°24' E 004°46'0 0.0
2017-Feb-14 13:29N 52°24' E 004°46'0 0.0
2017-Feb-14 12:33N 52°24' E 004°46'0 0.0
2017-Feb-14 11:33N 52°24' E 004°46'0 0.0
2017-Feb-14 10:27N 52°24' E 004°46'0 0.0
2017-Feb-14 09:33N 52°24' E 004°46'0 0.0
2017-Feb-14 08:27N 52°24' E 004°46'0 0.0
2017-Feb-14 07:27N 52°24' E 004°46'0 0.0
2017-Feb-14 06:33N 52°24' E 004°46'0 0.0
2017-Feb-14 05:27N 52°24' E 004°46'0 0.0
2017-Feb-14 04:33N 52°24' E 004°46'0 0.0
2017-Feb-14 03:27N 52°24' E 004°46'0 0.0
2017-Feb-14 02:27N 52°24' E 004°46'0 0.0
2017-Feb-14 01:27N 52°24' E 004°46'0 0.0
2017-Feb-14 00:29N 52°24' E 004°46'0 0.0
2017-Feb-13 23:29N 52°24' E 004°46'0 0.0
2017-Feb-13 22:33N 52°24' E 004°46'0 0.0
2017-Feb-13 21:33N 52°24' E 004°46'0 0.0
2017-Feb-13 20:17N 52°24' E 004°46'0 0.0
2017-Feb-13 19:33N 52°24' E 004°46'0 0.0
2017-Feb-13 18:33N 52°24' E 004°46'0 0.0
2017-Feb-13 17:33N 52°24' E 004°46'0 0.0
2017-Feb-13 16:27N 52°24' E 004°46'0 0.0
2017-Feb-13 15:17N 52°24' E 004°46'0 0.0
2017-Feb-13 14:33N 52°24' E 004°46'0 0.0
2017-Feb-13 13:33N 52°24' E 004°46'2 1.9
2017-Feb-13 12:33N 52°26' E 004°45'6 5.7
2017-Feb-13 11:33N 52°28' E 004°36'3 3.5
2017-Feb-13 10:34N 52°28' E 004°31'8 7.9
2017-Feb-13 09:33N 52°28' E 004°18'2410.1
2017-Feb-13 07:11N 52°24' E 003°39'9 9.0
2017-Feb-13 06:09N 52°20' E 003°25'810.1
2017-Feb-13 05:24N 52°15' E 003°17'910.5
2017-Feb-13 04:33N 52°09' E 003°06'1313.4
2017-Feb-13 03:33N 51°60' E 002°50'1311.9
2017-Feb-13 02:26N 51°57' E 002°29'1313.3
2017-Feb-13 01:27N 51°47' E 002°15'1112.2
2017-Feb-13 00:33N 51°39' E 002°03'1111.0
2017-Feb-12 23:33N 51°32' E 001°49'1010.5
2017-Feb-12 22:33N 51°28' E 001°34'9 7.3
2017-Feb-12 21:19N 51°29' E 001°19'7 9.1
2017-Feb-12 20:33N 51°29' E 001°08'1410.6
2017-Feb-12 19:15N 51°29' E 000°46'1013.8
2017-Feb-12 18:33N 51°30' E 000°31'9 9.3
2017-Feb-12 17:33N 51°28' E 000°16'0 0.1
2017-Feb-12 16:34N 51°28' E 000°16'0 0.0
2017-Feb-12 15:34N 51°28' E 000°16'0 0.0
2017-Feb-12 14:34N 51°28' E 000°16'0 0.0
2017-Feb-12 13:33N 51°28' E 000°16'0 0.0
2017-Feb-12 12:34N 51°28' E 000°16'0 0.0
2017-Feb-12 11:34N 51°28' E 000°16'0 0.0
2017-Feb-12 10:34N 51°28' E 000°16'0 0.0
2017-Feb-12 09:34N 51°28' E 000°16'0 0.0
2017-Feb-12 08:34N 51°28' E 000°16'0 0.0
2017-Feb-12 07:33N 51°28' E 000°16'0 0.0
2017-Feb-12 06:34N 51°28' E 000°16'0 0.0
2017-Feb-12 05:34N 51°28' E 000°16'0 0.0
2017-Feb-12 04:34N 51°28' E 000°16'0 0.0
2017-Feb-12 03:34N 51°28' E 000°16'0 0.0
2017-Feb-12 02:34N 51°28' E 000°16'0 0.0
2017-Feb-12 01:34N 51°28' E 000°16'0 0.0
2017-Feb-12 00:34N 51°28' E 000°16'0 0.0
2017-Feb-11 23:34N 51°28' E 000°16'0 0.0
2017-Feb-11 22:34N 51°28' E 000°16'0 0.0
2017-Feb-11 21:34N 51°28' E 000°16'0 0.0
2017-Feb-11 20:34N 51°28' E 000°16'0 0.0
2017-Feb-11 19:34N 51°28' E 000°16'0 0.0
2017-Feb-11 18:34N 51°28' E 000°16'0 0.0
2017-Feb-11 17:34N 51°28' E 000°16'0 0.0
2017-Feb-11 16:34N 51°28' E 000°16'0 0.0
2017-Feb-11 15:34N 51°28' E 000°16'0 0.0
2017-Feb-11 14:34N 51°28' E 000°16'0 0.0
2017-Feb-11 13:34N 51°28' E 000°16'0 0.0
2017-Feb-11 12:34N 51°28' E 000°16'0 0.0
2017-Feb-11 11:34N 51°28' E 000°16'0 0.0
2017-Feb-11 10:34N 51°28' E 000°16'0 0.0
2017-Feb-11 09:34N 51°28' E 000°16'0 0.0
2017-Feb-11 08:34N 51°28' E 000°16'0 0.0
2017-Feb-11 07:34N 51°28' E 000°16'0 0.0
2017-Feb-11 06:34N 51°28' E 000°16'0 0.0
2017-Feb-11 05:34N 51°28' E 000°16'0 0.0
2017-Feb-11 04:34N 51°28' E 000°16'0 0.0
2017-Feb-11 03:34N 51°28' E 000°16'0 0.0
2017-Feb-11 02:33N 51°28' E 000°16'0 0.0
2017-Feb-11 01:34N 51°28' E 000°16'0 0.0
2017-Feb-11 00:34N 51°28' E 000°16'0 0.0
2017-Feb-10 23:34N 51°28' E 000°16'0 0.0
2017-Feb-10 22:34N 51°28' E 000°16'0 0.0
2017-Feb-10 21:34N 51°28' E 000°16'0 0.0
2017-Feb-10 20:34N 51°28' E 000°16'0 0.0
2017-Feb-10 19:34N 51°28' E 000°16'0 0.0
2017-Feb-10 18:34N 51°28' E 000°16'0 0.0
2017-Feb-10 17:34N 51°28' E 000°16'0 0.0
2017-Feb-10 16:34N 51°28' E 000°16'0 0.0
2017-Feb-10 15:34N 51°28' E 000°16'0 0.0
2017-Feb-10 14:34N 51°28' E 000°16'0 0.0
2017-Feb-10 13:34N 51°28' E 000°16'0 0.0
2017-Feb-10 12:34N 51°28' E 000°16'0 0.0
2017-Feb-10 11:34N 51°28' E 000°16'0 0.0
2017-Feb-10 10:33N 51°28' E 000°16'0 0.0
2017-Feb-10 09:34N 51°28' E 000°16'0 0.0
2017-Feb-10 08:34N 51°28' E 000°16'0 0.0
2017-Feb-10 07:34N 51°28' E 000°16'0 0.0
2017-Feb-10 06:34N 51°28' E 000°16'0 0.0
2017-Feb-10 05:32N 51°28' E 000°16'0 0.0
2017-Feb-10 04:33N 51°28' E 000°16'0 0.0
2017-Feb-10 03:34N 51°28' E 000°16'0 0.0
2017-Feb-10 02:34N 51°28' E 000°16'0 0.0
2017-Feb-10 01:34N 51°28' E 000°16'0 0.0
2017-Feb-10 00:34N 51°28' E 000°16'0 0.0
2017-Feb-09 23:34N 51°28' E 000°16'0 0.0
2017-Feb-09 22:33N 51°28' E 000°16'0 0.0
2017-Feb-09 21:34N 51°28' E 000°16'0 0.0
2017-Feb-09 20:34N 51°28' E 000°16'0 0.0
2017-Feb-09 19:34N 51°28' E 000°16'0 0.0
2017-Feb-09 18:34N 51°28' E 000°16'0 0.0
2017-Feb-09 17:34N 51°28' E 000°16'0 0.0
2017-Feb-09 16:34N 51°28' E 000°16'0 0.0
2017-Feb-09 15:34N 51°28' E 000°16'0 0.0
2017-Feb-09 14:33N 51°28' E 000°16'0 0.0
2017-Feb-09 13:34N 51°28' E 000°16'0 0.0
2017-Feb-09 12:34N 51°28' E 000°16'0 0.0
2017-Feb-09 11:33N 51°28' E 000°16'0 0.0
2017-Feb-09 10:31N 51°28' E 000°16'0 0.0
2017-Feb-09 09:34N 51°28' E 000°16'0 0.0
2017-Feb-09 08:34N 51°28' E 000°16'0 0.0
2017-Feb-09 07:34N 51°28' E 000°16'0 0.0
2017-Feb-09 06:34N 51°28' E 000°16'0 0.0
2017-Feb-09 05:34N 51°28' E 000°16'0 0.0
2017-Feb-09 04:34N 51°28' E 000°16'0 0.0
2017-Feb-09 03:34N 51°28' E 000°16'0 0.0
2017-Feb-09 02:34N 51°28' E 000°16'0 0.0
2017-Feb-09 01:34N 51°28' E 000°16'0 0.0
2017-Feb-09 00:34N 51°28' E 000°16'0 0.0
2017-Feb-08 23:34N 51°28' E 000°16'0 0.0
2017-Feb-08 22:34N 51°28' E 000°16'0 0.0
2017-Feb-08 21:34N 51°28' E 000°16'0 0.0
2017-Feb-08 20:34N 51°28' E 000°16'0 0.0
2017-Feb-08 19:34N 51°28' E 000°16'0 0.0
2017-Feb-08 18:34N 51°28' E 000°16'0 0.0
2017-Feb-08 17:34N 51°28' E 000°16'0 0.0
2017-Feb-08 16:34N 51°28' E 000°16'0 0.0
2017-Feb-08 15:34N 51°28' E 000°16'0 0.0
2017-Feb-08 14:34N 51°28' E 000°16'0 0.0
2017-Feb-08 13:33N 51°28' E 000°16'0 0.0
2017-Feb-08 12:33N 51°28' E 000°16'0 0.0
2017-Feb-08 11:30N 51°28' E 000°16'0 0.0
2017-Feb-08 10:33N 51°28' E 000°16'2 2.1
2017-Feb-08 09:33N 51°28' E 000°20'7 6.7
2017-Feb-08 08:34N 51°30' E 000°30'9 8.7
2017-Feb-08 07:34N 51°30' E 000°44'9 9.5
2017-Feb-08 06:34N 51°29' E 000°59'9 9.3
2017-Feb-08 05:34N 51°34' E 001°12'9 9.3
2017-Feb-08 04:34N 51°39' E 001°24'7 6.5
2017-Feb-08 03:33N 51°45' E 001°30'5 5.0
2017-Feb-08 02:34N 51°49' E 001°30'0 0.0
2017-Feb-08 01:33N 51°49' E 001°30'0 0.1
2017-Feb-08 00:33N 51°50' E 001°30'0 0.0
2017-Feb-07 23:33N 51°50' E 001°30'0 0.1
2017-Feb-07 22:33N 51°49' E 001°30'0 0.1
2017-Feb-07 21:33N 51°49' E 001°30'0 0.2
2017-Feb-07 20:33N 51°49' E 001°30'0 0.0
2017-Feb-07 19:33N 51°49' E 001°30'0 0.0
2017-Feb-07 18:33N 51°49' E 001°30'0 0.0
2017-Feb-07 17:33N 51°49' E 001°30'0 0.0
2017-Feb-07 16:33N 51°49' E 001°30'0 0.1
2017-Feb-07 15:33N 51°49' E 001°30'0 0.2
2017-Feb-07 14:33N 51°49' E 001°30'0 0.0
2017-Feb-07 13:33N 51°49' E 001°30'0 0.0
2017-Feb-07 12:33N 51°49' E 001°30'0 0.0
2017-Feb-07 11:33N 51°49' E 001°30'0 0.0
2017-Feb-07 10:33N 51°50' E 001°30'0 0.0
2017-Feb-07 09:33N 51°50' E 001°30'  

Dump ship's entire track history